Time;durP1;ratioP1;P1;durP2;ratioP2;P2;SDS_P1;SDS_P2;PMS_P1;PMS_P2;Temp;Humidity;BMP_temperature;BMP_pressure;BME280_temperature;BME280_humidity;BME280_pressure;Samples;Min_cycle;Max_cycle;Signal;HPM_P1;HPM_P2
2022/03/13 00:01:18;;;;;;;13.85;10.73;;;;;;;11.11;60.68;99695.91;5047494;28;20024;-86
2022/03/13 00:03:43;;;;;;;13.23;10.35;;;;;;;11.15;60.40;99699.97;5030653;28;20036;-86
2022/03/13 00:06:11;;;;;;;13.55;9.55;;;;;;;11.20;60.46;99690.50;5025538;28;20600;-87
2022/03/13 00:08:38;;;;;;;13.87;9.70;;;;;;;11.18;60.28;99680.94;5048977;28;20029;-86
2022/03/13 00:11:07;;;;;;;12.57;10.00;;;;;;;11.16;60.34;99680.25;5048514;28;20275;-86
2022/03/13 00:13:55;;;;;;;16.10;10.65;;;;;;;11.16;60.08;99681.09;5032136;28;20028;-86
2022/03/13 00:16:22;;;;;;;13.35;10.15;;;;;;;11.14;59.54;99676.88;5047612;28;20115;-86
2022/03/13 00:18:47;;;;;;;13.30;9.73;;;;;;;11.16;59.65;99675.72;5031825;28;20062;-87
2022/03/13 00:21:15;;;;;;;13.50;10.43;;;;;;;11.15;59.89;99682.06;5031231;28;20067;-87
2022/03/13 00:23:41;;;;;;;13.18;10.32;;;;;;;11.12;59.62;99693.09;5048304;28;20035;-87
2022/03/13 00:26:07;;;;;;;15.35;10.50;;;;;;;11.10;59.33;99697.75;5031875;28;20098;-87
2022/03/13 00:28:32;;;;;;;13.93;10.05;;;;;;;11.10;59.62;99695.06;5031673;28;20032;-87
2022/03/13 00:30:58;;;;;;;13.00;9.82;;;;;;;11.11;59.84;99691.41;5048570;28;20119;-86
2022/03/13 00:33:24;;;;;;;13.65;10.30;;;;;;;11.09;59.91;99693.38;5030736;28;20044;-86
2022/03/13 00:35:49;;;;;;;13.30;10.40;;;;;;;11.11;59.83;99695.91;5023699;28;20119;-86
2022/03/13 00:38:14;;;;;;;13.18;9.52;;;;;;;11.08;59.59;99698.88;5031498;28;20517;-87
2022/03/13 00:40:40;;;;;;;12.82;9.98;;;;;;;11.08;59.94;99693.53;5030857;28;20051;-86
2022/03/13 00:43:07;;;;;;;11.95;9.85;;;;;;;11.10;59.84;99686.19;5029824;28;20028;-86
2022/03/13 00:45:33;;;;;;;12.93;9.52;;;;;;;11.09;59.67;99688.03;5031308;28;20097;-87
2022/03/13 00:47:59;;;;;;;12.13;9.70;;;;;;;11.10;59.85;99679.00;5030135;28;20028;-86
2022/03/13 00:50:38;;;;;;;13.27;9.45;;;;;;;11.08;59.75;99680.16;5031552;28;20043;-87
2022/03/13 00:53:05;;;;;;;12.45;9.77;;;;;;;11.07;60.01;99683.81;5030847;28;20036;-87
2022/03/13 00:55:30;;;;;;;11.77;9.90;;;;;;;11.08;60.02;99674.78;5030838;28;20049;-86
2022/03/13 00:57:55;;;;;;;13.65;10.23;;;;;;;11.06;59.30;99668.75;5030451;28;20059;-87
2022/03/13 01:00:21;;;;;;;14.00;9.25;;;;;;;11.01;59.73;99672.72;5030677;28;20107;-86
2022/03/13 01:02:47;;;;;;;12.35;9.77;;;;;;;10.96;59.68;99660.78;5029520;28;20036;-87
2022/03/13 01:05:21;;;;;;;13.50;9.10;;;;;;;10.97;59.60;99665.13;5030720;28;20589;-86
2022/03/13 01:07:47;;;;;;;12.15;9.05;;;;;;;10.96;60.16;99653.59;5046631;28;20032;-86
2022/03/13 01:10:12;;;;;;;13.02;9.65;;;;;;;10.95;59.97;99651.91;5035447;28;20029;-87
2022/03/13 01:12:38;;;;;;;12.40;9.55;;;;;;;10.99;59.86;99647.09;5050173;28;20101;-86
2022/03/13 01:15:04;;;;;;;12.73;9.15;;;;;;;10.98;59.85;99654.28;5031432;28;20119;-86
2022/03/13 01:17:29;;;;;;;14.30;9.43;;;;;;;10.97;59.42;99652.59;5031105;28;20386;-86
2022/03/13 01:19:54;;;;;;;13.75;9.65;;;;;;;10.96;59.72;99648.22;5030764;28;20041;-86
2022/03/13 01:22:20;;;;;;;13.13;9.30;;;;;;;10.94;59.61;99638.69;5031022;28;20063;-86
2022/03/13 01:24:46;;;;;;;13.68;10.00;;;;;;;10.94;59.40;99636.84;5030562;28;20444;-87
2022/03/13 01:27:15;;;;;;;12.13;9.23;;;;;;;11.00;60.05;99633.56;5030398;28;20030;-86
2022/03/13 01:29:41;;;;;;;14.10;10.50;;;;;;;11.01;59.87;99621.03;5039095;28;20024;-86
2022/03/13 01:32:09;;;;;;;14.00;9.63;;;;;;;10.96;58.88;99626.00;5030871;28;20042;-87
2022/03/13 01:34:35;;;;;;;15.23;10.48;;;;;;;10.92;58.92;99620.09;5046465;28;20071;-86
2022/03/13 01:37:04;;;;;;;14.23;10.32;;;;;;;10.88;58.92;99613.34;5047440;28;20036;-87
2022/03/13 01:39:29;;;;;;;13.55;10.02;;;;;;;10.91;59.08;99612.22;5030392;28;20033;-86
2022/03/13 01:41:55;;;;;;;15.55;10.30;;;;;;;10.84;58.96;99611.94;5030296;28;20036;-86
2022/03/13 01:44:20;;;;;;;13.25;9.88;;;;;;;10.81;59.15;99604.22;5030502;28;20032;-87
2022/03/13 01:46:46;;;;;;;14.65;10.35;;;;;;;10.77;59.03;99597.47;5046871;28;20043;-86
2022/03/13 01:49:12;;;;;;;15.13;10.23;;;;;;;10.76;59.52;99597.63;5031298;28;20119;-86
2022/03/13 01:51:39;;;;;;;14.05;10.00;;;;;;;10.73;59.21;99586.25;5030607;28;20120;-87
2022/03/13 01:54:08;;;;;;;13.57;10.48;;;;;;;10.72;59.24;99581.03;5030451;28;20079;-86
2022/03/13 01:56:35;;;;;;;14.05;10.23;;;;;;;10.72;59.32;99573.00;5046422;28;20474;-87
2022/03/13 01:59:01;;;;;;;12.60;10.25;;;;;;;10.69;58.62;99563.44;5029369;28;20109;-87
2022/03/13 02:01:39;;;;;;;13.75;10.05;;;;;;;10.72;58.68;99560.47;5029613;28;20024;-86
2022/03/13 02:04:05;;;;;;;15.85;9.95;;;;;;;10.73;58.18;99562.16;5030342;28;20051;-87
2022/03/13 02:06:30;;;;;;;13.45;9.77;;;;;;;10.83;59.15;99566.63;5029792;28;20117;-87
2022/03/13 02:08:56;;;;;;;13.00;9.48;;;;;;;10.88;59.05;99575.91;5030033;28;20178;-86
2022/03/13 02:11:23;;;;;;;11.82;9.30;;;;;;;10.89;58.14;99577.59;5029726;28;20516;-88
2022/03/13 02:13:51;;;;;;;12.38;9.50;;;;;;;10.92;57.96;99571.94;5029977;28;20032;-86
2022/03/13 02:16:18;;;;;;;12.20;8.98;;;;;;;10.92;57.68;99565.75;5029429;28;20029;-86
2022/03/13 02:18:48;;;;;;;12.20;9.30;;;;;;;10.99;58.80;99567.66;5029380;28;20414;-86
2022/03/13 02:21:15;;;;;;;13.10;9.68;;;;;;;10.96;58.05;99564.44;5045904;28;20433;-87
2022/03/13 02:23:41;;;;;;;12.50;9.25;;;;;;;10.99;58.76;99554.28;5023018;28;20054;-86
2022/03/13 02:26:06;;;;;;;12.80;9.13;;;;;;;10.98;58.33;99552.59;5046957;28;20494;-87
2022/03/13 02:28:34;;;;;;;12.13;9.00;;;;;;;10.97;58.42;99556.28;5030173;28;20025;-86
2022/03/13 02:31:05;;;;;;;11.82;9.00;;;;;;;10.99;58.23;99545.44;5048391;28;20027;-86
2022/03/13 02:33:30;;;;;;;11.38;8.98;;;;;;;10.95;57.79;99547.56;5033232;28;20086;-86
2022/03/13 02:36:00;;;;;;;11.63;8.85;;;;;;;10.91;57.40;99546.19;5050426;28;20115;-86
2022/03/13 02:38:28;;;;;;;11.13;8.82;;;;;;;10.98;58.16;99538.38;5049334;28;20640;-86
2022/03/13 02:40:54;;;;;;;11.75;9.38;;;;;;;10.95;57.28;99536.88;5033862;28;20028;-85
2022/03/13 02:43:20;;;;;;;11.32;9.05;;;;;;;10.95;57.52;99534.19;5034046;28;20047;-86
2022/03/13 02:45:45;;;;;;;11.77;8.85;;;;;;;10.93;56.86;99536.16;5033648;28;20474;-86
2022/03/13 02:48:11;;;;;;;11.52;8.98;;;;;;;10.97;57.47;99531.34;5050650;28;20036;-87
2022/03/13 02:50:37;;;;;;;10.93;8.25;;;;;;;10.97;57.45;99528.69;5033620;28;20096;-87
2022/03/13 02:53:03;;;;;;;11.70;8.65;;;;;;;10.97;57.51;99532.19;5042799;28;20119;-86
2022/03/13 02:55:29;;;;;;;11.32;8.95;;;;;;;10.93;57.20;99520.13;5031773;28;20081;-87
2022/03/13 02:57:54;;;;;;;11.98;9.20;;;;;;;10.92;56.59;99514.91;5049896;28;20072;-87
2022/03/13 03:00:21;;;;;;;11.70;8.18;;;;;;;10.90;56.57;99520.41;5033001;28;20040;-86
2022/03/13 03:02:47;;;;;;;13.05;8.85;;;;;;;10.93;56.99;99514.78;5032478;28;20054;-87
2022/03/13 03:05:14;;;;;;;11.15;8.50;;;;;;;10.95;56.09;99517.28;5050650;28;20028;-87
2022/03/13 03:07:40;;;;;;;10.05;8.18;;;;;;;10.94;56.46;99520.97;5024166;28;20067;-87
2022/03/13 03:10:10;;;;;;;12.45;8.68;;;;;;;10.94;56.29;99520.97;5033153;28;20059;-87
2022/03/13 03:12:35;;;;;;;11.52;8.73;;;;;;;10.97;56.88;99528.69;5032618;28;20558;-87
2022/03/13 03:15:01;;;;;;;10.02;7.80;;;;;;;11.00;56.76;99525.69;5033498;28;20036;-86
2022/03/13 03:17:27;;;;;;;11.57;8.43;;;;;;;11.00;56.63;99523.03;5032428;28;20032;-87
2022/03/13 03:19:52;;;;;;;11.02;8.88;;;;;;;10.97;56.15;99521.50;5049427;28;20489;-84
2022/03/13 03:22:17;;;;;;;11.73;8.35;;;;;;;10.95;55.99;99523.47;5032526;28;20506;-87
2022/03/13 03:24:43;;;;;;;11.25;8.80;;;;;;;10.94;56.12;99520.97;5032724;28;20102;-87
2022/03/13 03:27:08;;;;;;;11.98;8.60;;;;;;;10.90;55.89;99536.47;5032612;28;20089;-86
2022/03/13 03:29:33;;;;;;;10.77;8.40;;;;;;;10.85;55.81;99528.03;5032725;28;20119;-86
2022/03/13 03:31:59;;;;;;;10.65;8.20;;;;;;;10.84;56.33;99531.69;5031993;28;20111;-86
2022/03/13 03:34:26;;;;;;;10.50;8.20;;;;;;;10.82;56.55;99522.97;5031273;28;20119;-86
2022/03/13 03:36:55;;;;;;;10.70;8.05;;;;;;;10.80;56.48;99522.28;5031345;28;20119;-86
2022/03/13 03:39:22;;;;;;;10.88;8.52;;;;;;;10.80;56.47;99521.44;5031999;28;20040;-86
2022/03/13 03:41:49;;;;;;;10.77;8.40;;;;;;;10.76;56.63;99518.22;5030744;28;20393;-86
2022/03/13 03:44:15;;;;;;;11.45;8.95;;;;;;;10.76;57.07;99525.41;5031957;28;20068;-86
2022/03/13 03:46:41;;;;;;;13.07;8.77;;;;;;;10.75;57.90;99529.91;5025667;28;20125;-87
2022/03/13 03:49:07;;;;;;;11.23;8.18;;;;;;;10.74;58.48;99530.91;5032701;28;20622;-86
2022/03/13 03:52:12;;;;;;;11.75;8.73;;;;;;;10.73;58.55;99526.56;5031326;28;20118;-87
2022/03/13 03:54:37;;;;;;;10.23;8.43;;;;;;;10.72;58.71;99525.72;5067085;28;20039;-87
2022/03/13 03:57:03;;;;;;;11.20;8.07;;;;;;;10.71;58.67;99529.38;5031407;28;20032;-87
2022/03/13 03:59:28;;;;;;;12.40;8.50;;;;;;;10.70;59.05;99533.03;5048966;28;20048;-85
2022/03/13 04:01:54;;;;;;;10.68;8.45;;;;;;;10.68;59.41;99521.66;5046700;28;20122;-87
2022/03/13 04:04:19;;;;;;;11.20;8.70;;;;;;;10.69;59.76;99530.53;5047886;28;20045;-87
2022/03/13 04:06:44;;;;;;;11.35;8.65;;;;;;;10.70;59.33;99527.69;5031811;28;20154;-87
2022/03/13 04:09:11;;;;;;;11.60;8.40;;;;;;;10.68;60.01;99521.66;5039594;28;20028;-87
2022/03/13 04:11:40;;;;;;;12.10;9.38;;;;;;;10.70;59.86;99518.84;5031451;28;20058;-86
2022/03/13 04:14:06;;;;;;;11.07;8.40;;;;;;;10.70;59.10;99518.84;5032336;28;20032;-86
2022/03/13 04:16:31;;;;;;;10.82;8.43;;;;;;;10.69;59.11;99509.13;5031528;28;20086;-87
2022/03/13 04:18:57;;;;;;;11.48;8.40;;;;;;;10.67;58.96;99514.63;5049107;28;20032;-86
2022/03/13 04:21:22;;;;;;;10.73;8.38;;;;;;;10.69;59.09;99512.66;5031822;28;20024;-86
2022/03/13 04:23:48;;;;;;;11.43;9.05;;;;;;;10.68;58.58;99523.50;5031585;28;20068;-86
2022/03/13 04:26:14;;;;;;;12.63;8.77;;;;;;;10.70;58.28;99527.69;5024410;28;20036;-86
2022/03/13 04:28:40;;;;;;;11.73;8.88;;;;;;;10.70;58.26;99519.69;5048731;28;20017;-88
2022/03/13 04:31:08;;;;;;;12.07;8.43;;;;;;;10.75;58.19;99523.72;5030403;28;20058;-86
2022/03/13 04:33:34;;;;;;;11.03;8.83;;;;;;;10.75;57.68;99526.41;5047536;28;20089;-87
2022/03/13 04:36:03;;;;;;;11.57;8.68;;;;;;;10.77;57.29;99530.63;5030916;28;20052;-87
2022/03/13 04:38:29;;;;;;;11.93;9.20;;;;;;;10.77;57.05;99535.13;5032056;28;20138;-86
2022/03/13 04:40:55;;;;;;;12.75;8.73;;;;;;;10.77;57.13;99530.63;5030851;28;20151;-86
2022/03/13 04:43:21;;;;;;;13.48;8.88;;;;;;;10.78;57.03;99526.09;5031320;28;20028;-87
2022/03/13 04:45:48;;;;;;;12.85;8.82;;;;;;;10.76;56.42;99520.91;5029944;28;20035;-87
2022/03/13 04:48:14;;;;;;;12.13;8.90;;;;;;;10.75;56.69;99516.56;5039069;28;20024;-87
2022/03/13 04:50:39;;;;;;;12.35;8.75;;;;;;;10.72;56.40;99523.03;5030737;28;20033;-87
2022/03/13 04:53:06;;;;;;;12.45;8.85;;;;;;;10.71;56.74;99521.34;5031248;28;20047;-87
2022/03/13 04:55:32;;;;;;;11.80;9.15;;;;;;;10.72;56.60;99522.19;5031233;28;20525;-86
2022/03/13 04:57:57;;;;;;;12.23;9.15;;;;;;;10.73;56.14;99527.41;5047269;28;20123;-87
2022/03/13 05:00:25;;;;;;;11.48;9.25;;;;;;;10.80;56.94;99524.97;5047606;28;20032;-87
2022/03/13 05:02:51;;;;;;;12.17;9.23;;;;;;;10.84;57.18;99528.19;5031819;28;20397;-87
2022/03/13 05:05:17;;;;;;;12.50;8.98;;;;;;;10.82;56.41;99520.31;5031012;28;20358;-87
2022/03/13 05:07:42;;;;;;;12.27;9.18;;;;;;;10.78;56.28;99521.59;5031325;28;20028;-86
2022/03/13 05:10:10;;;;;;;11.95;9.40;;;;;;;10.73;56.21;99519.38;5031423;28;20476;-87
2022/03/13 05:12:36;;;;;;;12.85;9.02;;;;;;;10.72;55.99;99512.34;5029543;28;20032;-88
2022/03/13 05:15:01;;;;;;;12.20;9.35;;;;;;;10.75;56.32;99513.88;5031031;28;20160;-87
2022/03/13 05:17:26;;;;;;;13.30;9.70;;;;;;;10.76;55.95;99512.88;5046097;28;20047;-87
2022/03/13 05:19:52;;;;;;;12.93;9.23;;;;;;;10.76;56.20;99517.38;5030831;28;20030;-86
2022/03/13 05:22:17;;;;;;;11.88;9.60;;;;;;;10.75;56.15;99518.38;5030205;28;20040;-87
2022/03/13 05:24:43;;;;;;;14.10;10.10;;;;;;;10.77;55.68;99522.59;5030723;28;20047;-86
2022/03/13 05:27:08;;;;;;;14.13;9.55;;;;;;;10.75;56.64;99516.56;5029572;28;20043;-86
2022/03/13 05:29:34;;;;;;;12.75;9.80;;;;;;;10.77;56.80;99509.22;5030501;28;20028;-87
2022/03/13 05:31:59;;;;;;;13.70;9.68;;;;;;;10.79;56.75;99507.22;5046789;28;20488;-87
2022/03/13 05:34:24;;;;;;;12.63;9.48;;;;;;;10.79;56.51;99517.09;5030692;28;20033;-86
2022/03/13 05:36:50;;;;;;;12.90;9.43;;;;;;;10.75;57.03;99516.56;5046434;28;20561;-87
2022/03/13 05:39:15;;;;;;;13.43;9.85;;;;;;;10.75;57.00;99510.34;5030953;28;20111;-87
2022/03/13 05:41:42;;;;;;;12.30;9.90;;;;;;;10.70;56.80;99514.31;5040206;28;20062;-86
2022/03/13 05:44:09;;;;;;;14.75;10.10;;;;;;;10.75;57.01;99516.56;5030514;28;20024;-87
2022/03/13 05:46:34;;;;;;;13.48;9.85;;;;;;;10.76;57.49;99514.72;5029798;28;20123;-86
2022/03/13 05:49:00;;;;;;;13.80;10.05;;;;;;;10.74;57.31;99509.53;5047361;28;20131;-87
2022/03/13 05:51:25;;;;;;;13.40;9.88;;;;;;;10.73;57.79;99502.50;5030024;28;20029;-87
2022/03/13 05:53:51;;;;;;;12.73;9.77;;;;;;;10.74;58.13;99496.16;5030130;28;20512;-86
2022/03/13 05:56:16;;;;;;;14.80;10.07;;;;;;;10.70;57.96;99508.13;5028785;28;20056;-86
2022/03/13 05:58:41;;;;;;;14.02;10.00;;;;;;;10.69;58.07;99495.75;5030036;28;20044;-86
2022/03/13 06:01:08;;;;;;;13.90;10.55;;;;;;;10.68;58.30;99502.09;5029526;28;20028;-86
2022/03/13 06:03:34;;;;;;;14.10;10.27;;;;;;;10.67;58.32;99503.94;5030289;28;20028;-87
2022/03/13 06:06:03;;;;;;;14.57;10.70;;;;;;;10.67;58.71;99506.59;5032483;28;20039;-86
2022/03/13 06:08:28;;;;;;;;;;;;;;;10.72;58.80;99511.50;5034125;28;20082;-86
2022/03/13 06:10:54;;;;;;;12.98;10.23;;;;;;;10.72;59.12;99506.16;5050649;28;19999;-87
2022/03/13 06:13:22;;;;;;;11.95;9.52;;;;;;;10.80;60.16;99508.06;5033995;28;20032;-87
2022/03/13 06:15:48;;;;;;;15.03;10.37;;;;;;;10.79;60.12;99520.59;5033910;28;20521;-87
2022/03/13 06:18:13;;;;;;;12.93;10.48;;;;;;;10.78;60.18;99518.09;5033391;28;20282;-86
2022/03/13 06:20:39;;;;;;;13.52;10.77;;;;;;;10.80;60.37;99513.41;5033989;28;20036;-86
2022/03/13 06:23:04;;;;;;;14.00;10.45;;;;;;;10.77;60.28;99519.06;5034233;28;20028;-86
2022/03/13 06:25:29;;;;;;;14.55;10.80;;;;;;;10.76;61.05;99520.06;5041039;28;20433;-86
2022/03/13 06:27:56;;;;;;;15.40;11.30;;;;;;;10.81;61.04;99517.78;5032801;28;20062;-87
2022/03/13 06:30:21;;;;;;;14.02;10.73;;;;;;;10.82;60.93;99519.47;5033758;28;20123;-86
2022/03/13 06:32:51;;;;;;;16.55;11.40;;;;;;;10.82;61.06;99514.94;5050090;28;20413;-87
2022/03/13 06:35:18;;;;;;;14.60;11.30;;;;;;;10.82;61.04;99516.78;5026126;28;20043;-87
2022/03/13 06:37:44;;;;;;;15.95;11.35;;;;;;;10.80;60.98;99524.97;5025567;28;20031;-86
2022/03/13 06:40:10;;;;;;;12.48;10.27;;;;;;;10.78;60.70;99529.63;5033679;28;20413;-86
2022/03/13 06:42:36;;;;;;;14.88;11.13;;;;;;;10.77;60.55;99529.78;5032912;28;20037;-87
2022/03/13 06:45:03;;;;;;;14.45;11.05;;;;;;;10.77;60.50;99535.13;5025769;28;20444;-86
2022/03/13 06:47:28;;;;;;;15.10;11.48;;;;;;;10.76;61.01;99525.41;5032550;28;20135;-87
2022/03/13 06:49:53;;;;;;;13.43;10.73;;;;;;;10.75;61.12;99523.72;5050583;28;20115;-86
2022/03/13 06:52:19;;;;;;;15.15;11.05;;;;;;;10.74;61.42;99522.88;5032437;28;20055;-87
2022/03/13 06:54:45;;;;;;;15.32;11.30;;;;;;;10.74;61.20;99522.88;5033730;28;20082;-86
2022/03/13 06:57:12;;;;;;;14.93;11.30;;;;;;;10.75;61.62;99524.56;5031633;28;20024;-87
2022/03/13 06:59:38;;;;;;;16.48;10.48;;;;;;;10.76;61.77;99523.59;5032913;28;20403;-87
2022/03/13 07:02:03;;;;;;;16.48;11.30;;;;;;;10.77;62.00;99511.88;5031045;28;20031;-86
2022/03/13 07:04:29;;;;;;;15.70;11.80;;;;;;;10.79;62.03;99514.41;5032269;28;20032;-86
2022/03/13 07:06:54;;;;;;;16.20;11.38;;;;;;;10.73;61.11;99518.53;5055011;28;20524;-87
2022/03/13 07:09:19;;;;;;;15.45;11.85;;;;;;;10.65;61.00;99531.81;5033136;28;20051;-87
2022/03/13 07:11:48;;;;;;;15.35;11.48;;;;;;;10.64;60.87;99522.94;5032130;28;20116;-87
2022/03/13 07:14:14;;;;;;;18.02;12.25;;;;;;;10.66;60.91;99525.47;5050126;28;20058;-87
2022/03/13 07:16:39;;;;;;;14.70;11.55;;;;;;;10.68;60.92;99520.81;5031323;28;20028;-85
2022/03/13 07:19:05;;;;;;;14.98;11.18;;;;;;;10.72;61.24;99528.38;5032343;28;20029;-87
2022/03/13 07:21:30;;;;;;;15.95;11.57;;;;;;;10.74;61.19;99522.88;5048404;28;20028;-87
2022/03/13 07:23:55;;;;;;;14.45;11.35;;;;;;;10.76;61.09;99526.25;5032441;28;21290;-86
2022/03/13 07:26:21;;;;;;;14.82;11.23;;;;;;;10.82;61.69;99522.97;5032370;28;20444;-86
2022/03/13 07:28:46;;;;;;;14.13;11.20;;;;;;;10.86;62.04;99521.69;5031949;28;20060;-87
2022/03/13 07:31:11;;;;;;;16.20;11.25;;;;;;;10.88;61.78;99521.53;5032676;28;20036;-86
2022/03/13 07:33:37;;;;;;;15.10;10.88;;;;;;;10.89;62.06;99525.94;5032516;28;20685;-87
2022/03/13 07:36:03;;;;;;;15.63;10.90;;;;;;;10.90;61.98;99530.28;5032594;28;20024;-87
2022/03/13 07:38:28;;;;;;;14.55;11.25;;;;;;;10.94;62.52;99524.47;5031166;28;20047;-86
2022/03/13 07:40:54;;;;;;;15.43;11.15;;;;;;;10.95;62.56;99519.97;5032005;28;20047;-87
2022/03/13 07:43:19;;;;;;;16.55;11.77;;;;;;;10.95;62.19;99523.47;5031880;28;20035;-86
2022/03/13 07:45:44;;;;;;;14.88;11.48;;;;;;;10.94;62.36;99523.63;5032476;28;20496;-87
2022/03/13 07:48:10;;;;;;;15.27;11.25;;;;;;;10.94;62.26;99516.44;5032108;28;20025;-87
2022/03/13 07:50:35;;;;;;;14.25;11.38;;;;;;;10.92;62.95;99517.59;5032995;28;20064;-87
2022/03/13 07:53:01;;;;;;;15.55;11.25;;;;;;;10.94;62.65;99513.78;5031413;28;20035;-87
2022/03/13 07:55:27;;;;;;;14.88;10.63;;;;;;;10.96;62.81;99518.97;5032209;28;20064;-87
2022/03/13 07:57:52;;;;;;;17.00;11.77;;;;;;;10.96;62.69;99514.47;5028701;28;20055;-87
2022/03/13 08:00:21;;;;;;;15.43;11.27;;;;;;;10.98;62.98;99517.00;5029352;28;20059;-87
2022/03/13 08:02:47;;;;;;;14.27;11.40;;;;;;;10.99;62.85;99514.16;5027936;28;20139;-86
2022/03/13 08:05:18;;;;;;;12.48;10.10;;;;;;;11.02;63.10;99521.03;5028973;28;20083;-87
2022/03/13 08:07:44;;;;;;;14.23;10.32;;;;;;;11.03;62.64;99514.69;5027363;28;20031;-86
2022/03/13 08:10:10;;;;;;;14.25;10.98;;;;;;;11.05;63.29;99515.38;5012496;28;20418;-86
2022/03/13 08:12:38;;;;;;;15.32;11.43;;;;;;;11.06;63.32;99514.41;5028694;28;20036;-87
2022/03/13 08:15:08;;;;;;;13.88;10.88;;;;;;;11.08;62.86;99520.44;5008843;28;20449;-87
2022/03/13 08:17:34;;;;;;;13.07;10.48;;;;;;;11.10;63.13;99506.91;5026241;28;20032;-87
2022/03/13 08:20:00;;;;;;;12.55;10.20;;;;;;;11.11;63.39;99511.25;5009672;28;20029;-87
2022/03/13 08:22:25;;;;;;;14.05;10.15;;;;;;;11.14;63.68;99506.44;5027503;28;20633;-87
2022/03/13 08:24:51;;;;;;;12.40;9.65;;;;;;;11.18;64.06;99506.97;5010423;28;20020;-87
2022/03/13 08:27:17;;;;;;;15.82;10.45;;;;;;;11.24;64.26;99493.81;5010728;28;20029;-87
2022/03/13 08:29:42;;;;;;;14.50;10.27;;;;;;;11.26;63.91;99489.16;5026873;28;20651;-88
2022/03/13 08:32:08;;;;;;;13.10;9.25;;;;;;;11.27;64.35;99498.03;5011399;28;20076;-86
2022/03/13 08:34:34;;;;;;;12.32;9.02;;;;;;;11.32;64.25;99498.41;5021188;28;20026;-86
2022/03/13 08:37:00;;;;;;;13.40;8.93;;;;;;;11.31;64.13;99502.91;5027032;28;20378;-88
2022/03/13 08:39:25;;;;;;;12.23;9.43;;;;;;;11.33;64.58;99495.56;5011628;28;20660;-87
2022/03/13 08:41:51;;;;;;;12.38;8.35;;;;;;;11.37;64.39;99504.16;5027187;28;20036;-88
2022/03/13 08:44:16;;;;;;;11.80;8.10;;;;;;;11.41;64.42;99493.97;5028617;28;20049;-87
2022/03/13 08:46:41;;;;;;;8.98;7.63;;;;;;;11.40;64.80;99494.97;5043985;28;20568;-88
2022/03/13 08:49:09;;;;;;;9.98;7.75;;;;;;;11.40;64.40;99497.66;5044968;28;20406;-87
2022/03/13 08:51:35;;;;;;;9.48;7.65;;;;;;;11.37;65.13;99496.13;5027813;28;20044;-87
2022/03/13 08:54:00;;;;;;;8.82;6.68;;;;;;;11.36;64.14;99491.78;5027884;28;20029;-86
2022/03/13 08:56:26;;;;;;;8.77;6.85;;;;;;;11.38;64.09;99483.59;5027529;28;20123;-87
2022/03/13 08:58:53;;;;;;;7.78;6.10;;;;;;;11.37;64.46;99484.59;5031162;28;20071;-87
2022/03/13 09:01:19;;;;;;;8.82;6.70;;;;;;;11.40;64.69;99479.75;5029610;28;20047;-87
2022/03/13 09:03:44;;;;;;;12.13;6.63;;;;;;;11.44;64.64;99491.00;5027742;28;20387;-86
2022/03/13 09:06:09;;;;;;;6.88;5.90;;;;;;;11.50;64.28;99471.63;5029851;28;20125;-86
2022/03/13 09:08:35;;;;;;;7.53;5.82;;;;;;;11.51;63.67;99486.69;5031376;28;20039;-86
2022/03/13 09:11:00;;;;;;;7.40;5.32;;;;;;;11.46;63.20;99476.47;5047445;28;20037;-86
2022/03/13 09:13:26;;;;;;;6.30;5.03;;;;;;;11.47;63.08;99486.16;5030777;28;20055;-86
2022/03/13 09:15:51;;;;;;;6.45;5.10;;;;;;;11.50;63.73;99474.31;5030493;28;20066;-86
2022/03/13 09:18:17;;;;;;;7.53;5.32;;;;;;;11.53;63.14;99501.63;5029981;28;20059;-87
2022/03/13 09:20:42;;;;;;;6.07;4.72;;;;;;;11.51;62.84;99495.56;5030811;28;20025;-86
2022/03/13 09:23:08;;;;;;;6.30;4.90;;;;;;;11.49;62.50;99481.50;5047005;28;20545;-87
2022/03/13 09:25:34;;;;;;;5.97;4.40;;;;;;;11.53;62.42;99476.66;5030304;28;20032;-86
2022/03/13 09:28:01;;;;;;;5.65;4.60;;;;;;;11.51;62.75;99486.69;5029596;28;20101;-86
2022/03/13 09:30:26;;;;;;;6.38;4.95;;;;;;;11.55;63.20;99480.88;5030502;28;20048;-86
2022/03/13 09:32:51;;;;;;;6.25;4.80;;;;;;;11.57;63.18;99481.56;5028426;28;20039;-86
2022/03/13 09:35:17;;;;;;;6.80;4.60;;;;;;;11.61;64.43;99471.38;5030149;28;20024;-86
2022/03/13 09:37:43;;;;;;;5.93;4.50;;;;;;;11.62;63.79;99468.53;5029782;28;20029;-86
2022/03/13 09:40:10;;;;;;;5.80;4.30;;;;;;;11.63;64.04;99477.41;5029530;28;20036;-87
2022/03/13 09:42:36;;;;;;;6.13;4.22;;;;;;;11.59;63.47;99476.03;5033320;28;20175;-86
2022/03/13 09:45:01;;;;;;;5.72;4.25;;;;;;;11.57;63.69;99470.84;5033946;28;20040;-86
2022/03/13 09:47:28;;;;;;;5.50;4.40;;;;;;;11.58;64.02;99471.69;5033398;28;20047;-86
2022/03/13 09:49:53;;;;;;;5.82;4.50;;;;;;;11.59;63.51;99473.38;5033600;28;20039;-86
2022/03/13 09:52:19;;;;;;;6.03;4.47;;;;;;;11.63;64.17;99469.38;5031799;28;20028;-87
2022/03/13 09:54:44;;;;;;;5.03;4.15;;;;;;;11.64;63.25;99468.38;5032589;28;20032;-87
2022/03/13 09:57:10;;;;;;;5.75;4.00;;;;;;;11.60;62.61;99475.03;5031169;28;20032;-86
2022/03/13 09:59:35;;;;;;;4.93;4.40;;;;;;;11.61;63.05;99466.84;5026483;28;20041;-87
2022/03/13 10:02:07;;;;;;;6.30;4.50;;;;;;;11.62;62.77;99471.22;5028410;28;20063;-86
2022/03/13 10:04:33;;;;;;;4.72;4.07;;;;;;;11.70;63.38;99469.59;5030412;28;20133;-86
2022/03/13 10:07:07;;;;;;;4.60;3.72;;;;;;;11.65;63.47;99476.25;5022656;28;20112;-86
2022/03/13 10:09:33;;;;;;;5.38;3.72;;;;;;;11.70;63.04;99474.94;5022853;28;20032;-86
2022/03/13 10:12:07;;;;;;;4.63;3.90;;;;;;;11.72;62.63;99475.63;5030352;28;20044;-87
2022/03/13 10:14:34;;;;;;;5.88;3.95;;;;;;;11.68;61.90;99475.94;5023572;28;20036;-86
2022/03/13 10:16:59;;;;;;;5.30;3.60;;;;;;;11.70;62.50;99497.22;5030657;28;20128;-86
2022/03/13 10:19:26;;;;;;;6.25;3.65;;;;;;;11.72;62.60;99479.16;5030759;28;20119;-86
2022/03/13 10:22:08;;;;;;;4.65;3.75;;;;;;;11.76;63.78;99471.63;5022926;28;20686;-87
2022/03/13 10:24:42;;;;;;;4.18;3.78;;;;;;;11.76;62.45;99477.00;5012933;28;20079;-86
2022/03/13 10:27:09;;;;;;;4.82;3.50;;;;;;;11.76;61.35;99471.63;5014096;28;20510;-86
2022/03/13 10:29:34;;;;;;;5.53;3.63;;;;;;;11.73;61.64;99479.97;5027308;28;20055;-86
2022/03/13 10:32:00;;;;;;;4.15;3.60;;;;;;;11.76;62.34;99467.13;5045442;28;20032;-86
2022/03/13 10:34:26;;;;;;;4.00;3.47;;;;;;;11.80;62.38;99481.06;5029240;28;20067;-86
2022/03/13 10:36:52;;;;;;;3.90;3.35;;;;;;;11.82;60.13;99461.16;5029673;28;20032;-86
2022/03/13 10:39:19;;;;;;;4.28;3.42;;;;;;;11.80;61.22;99459.63;5047109;28;20083;-86
2022/03/13 10:41:44;;;;;;;3.88;3.30;;;;;;;11.76;61.77;99460.91;5030393;28;20029;-85
2022/03/13 10:44:18;;;;;;;4.00;3.50;;;;;;;11.79;61.39;99466.84;5027146;28;20040;-86
2022/03/13 10:46:45;;;;;;;4.07;3.47;;;;;;;11.82;63.00;99452.28;5029435;28;20029;-86
2022/03/13 10:49:13;;;;;;;3.65;3.10;;;;;;;11.81;62.67;99453.28;5023483;28;20068;-86
2022/03/13 10:51:49;;;;;;;5.13;3.37;;;;;;;11.80;62.15;99452.44;5012861;28;20116;-86
2022/03/13 10:54:37;;;;;;;3.47;3.17;;;;;;;11.81;62.25;99461.31;5029705;28;20031;-86
2022/03/13 10:57:06;;;;;;;;;;;;;;;11.80;62.25;99452.44;5023596;28;20043;-86
2022/03/13 10:59:32;;;;;;;4.15;2.90;;;;;;;11.79;62.64;99450.75;5030587;28;19969;-86
2022/03/13 11:02:21;;;;;;;3.75;2.90;;;;;;;11.84;62.08;99437.75;5032855;28;20032;-86
2022/03/13 11:04:50;;;;;;;;;;;;;;;11.82;62.62;99433.53;5033429;28;20440;-86
2022/03/13 11:07:16;;;;;;;3.28;2.97;;;;;;;11.82;62.36;99433.53;5032050;28;19916;-86
2022/03/13 11:09:42;;;;;;;5.32;3.03;;;;;;;11.83;62.91;99421.84;5032254;28;20035;-85
2022/03/13 11:12:10;;;;;;;3.17;2.83;;;;;;;11.85;64.02;99422.53;5031410;28;20248;-86
2022/03/13 11:14:36;;;;;;;3.65;2.67;;;;;;;11.88;64.37;99424.88;5027305;28;20020;-86
2022/03/13 11:17:02;;;;;;;3.00;2.70;;;;;;;11.96;62.50;99422.25;5032765;28;20029;-86
2022/03/13 11:19:28;;;;;;;3.38;2.90;;;;;;;11.93;62.55;99420.72;5048493;28;20024;-86
2022/03/13 11:21:54;;;;;;;3.53;2.80;;;;;;;11.92;61.65;99424.41;5046635;28;20038;-87